createdAt,value
2018-04-18T00:02:04.081Z,8.10
2018-04-18T00:04:31.578Z,8.10
2018-04-18T00:06:59.050Z,8.00
2018-04-18T00:09:26.555Z,8.00
2018-04-18T00:11:54.013Z,7.90
2018-04-18T00:14:21.518Z,7.90
2018-04-18T00:16:48.979Z,7.90
2018-04-18T00:19:16.485Z,7.90
2018-04-18T00:21:43.956Z,7.90
2018-04-18T00:24:12.309Z,8.00
2018-04-18T00:26:40.551Z,7.90
2018-04-18T00:29:08.009Z,7.90
2018-04-18T00:31:35.526Z,7.90
2018-04-18T00:34:02.991Z,7.90
2018-04-18T00:36:31.270Z,7.80
2018-04-18T00:38:59.496Z,7.80
2018-04-18T00:41:26.986Z,7.80
2018-04-18T00:43:54.464Z,7.80
2018-04-18T00:46:22.727Z,7.70
2018-04-18T00:48:50.191Z,7.70
2018-04-18T00:51:18.466Z,7.60
2018-04-18T00:53:46.715Z,7.50
2018-04-18T00:56:15.051Z,7.50
2018-04-18T00:58:42.510Z,7.60
2018-04-18T01:01:09.994Z,7.50
2018-04-18T01:03:38.229Z,7.40
2018-04-18T01:06:05.727Z,7.40
2018-04-18T01:08:33.191Z,7.40
2018-04-18T01:11:00.706Z,7.30
2018-04-18T01:13:28.170Z,7.30
2018-04-18T01:15:55.751Z,7.30
2018-04-18T01:18:23.122Z,7.30
2018-04-18T01:20:50.645Z,7.20
2018-04-18T01:23:18.108Z,7.20
2018-04-18T01:25:45.622Z,7.10
2018-04-18T01:28:13.134Z,7.10
2018-04-18T01:30:40.618Z,7.10
2018-04-18T01:33:08.103Z,7.00
2018-04-18T01:35:36.383Z,7.00
2018-04-18T01:38:04.608Z,7.00
2018-04-18T01:40:32.126Z,6.90
2018-04-18T01:43:00.384Z,6.90
2018-04-18T01:45:28.647Z,6.90
2018-04-18T01:47:56.144Z,6.90
2018-04-18T01:50:23.618Z,6.90
2018-04-18T01:52:51.123Z,6.80
2018-04-18T01:55:18.669Z,6.80
2018-04-18T01:57:46.202Z,6.80
2018-04-18T02:00:13.667Z,6.80
2018-04-18T02:02:41.239Z,6.80
2018-04-18T02:05:09.487Z,6.70
2018-04-18T02:07:36.993Z,6.70
2018-04-18T02:10:04.477Z,6.70
2018-04-18T02:12:32.744Z,6.60
2018-04-18T02:15:00.975Z,6.50
2018-04-18T02:17:28.495Z,6.50
2018-04-18T02:19:55.967Z,6.50
2018-04-18T02:22:23.464Z,6.50
2018-04-18T02:24:50.931Z,6.50
2018-04-18T02:27:18.432Z,6.50
2018-04-18T02:29:45.916Z,6.50
2018-04-18T02:32:13.414Z,6.50
2018-04-18T02:34:40.888Z,6.40
2018-04-18T02:37:09.405Z,6.40
2018-04-18T02:39:36.867Z,6.40
2018-04-18T02:42:04.335Z,6.40
2018-04-18T02:44:31.820Z,6.40
2018-04-18T02:46:59.716Z,6.40
2018-04-18T02:49:27.221Z,6.30
2018-04-18T02:51:54.678Z,6.30
2018-04-18T02:54:22.166Z,6.30
2018-04-18T02:56:49.628Z,6.20
2018-04-18T02:59:17.899Z,6.20
2018-04-18T03:01:46.137Z,6.10
2018-04-18T03:04:13.653Z,6.10
2018-04-18T03:06:41.882Z,6.00
2018-04-18T03:09:09.369Z,6.00
2018-04-18T03:11:36.862Z,6.00
2018-04-18T03:14:04.402Z,6.00
2018-04-18T03:16:31.883Z,6.00
2018-04-18T03:18:59.371Z,6.00
2018-04-18T03:21:26.869Z,6.00
2018-04-18T03:23:55.115Z,5.90
2018-04-18T03:26:22.759Z,5.90
2018-04-18T03:28:50.985Z,5.90
2018-04-18T03:31:19.255Z,5.80
2018-04-18T03:33:47.490Z,5.80
2018-04-18T03:36:14.989Z,5.80
2018-04-18T03:38:43.224Z,5.80
2018-04-18T03:41:10.708Z,5.80
2018-04-18T03:43:38.193Z,5.80
2018-04-18T03:46:05.716Z,5.90
2018-04-18T03:48:33.191Z,5.90
2018-04-18T03:51:01.460Z,5.90
2018-04-18T03:53:28.939Z,5.80
2018-04-18T03:55:57.201Z,5.80
2018-04-18T03:58:25.452Z,5.80
2018-04-18T04:00:53.540Z,5.70
2018-04-18T04:03:21.023Z,5.70
2018-04-18T04:05:48.500Z,5.70
2018-04-18T04:08:16.003Z,5.60
2018-04-18T04:10:43.478Z,5.60
2018-04-18T04:13:11.758Z,5.50
2018-04-18T04:15:39.995Z,5.50
2018-04-18T04:18:19.655Z,5.50
2018-04-18T04:20:59.083Z,5.50
2018-04-18T04:23:38.616Z,5.50
2018-04-18T04:26:06.096Z,5.50
2018-04-18T04:28:33.606Z,5.50
2018-04-18T04:31:01.110Z,5.60
2018-04-18T04:33:28.604Z,5.60
2018-04-18T04:35:56.144Z,5.60
2018-04-18T04:38:24.411Z,5.60
2018-04-18T04:40:51.886Z,5.50
2018-04-18T04:43:20.147Z,5.50
2018-04-18T04:45:48.388Z,5.50
2018-04-18T04:48:15.877Z,5.50
2018-04-18T04:50:43.440Z,5.50
2018-04-18T04:53:11.722Z,5.50
2018-04-18T04:55:39.954Z,5.50
2018-04-18T04:58:07.449Z,5.50
2018-04-18T05:00:35.715Z,5.60
2018-04-18T05:03:03.214Z,5.60
2018-04-18T05:05:30.692Z,5.60
2018-04-18T05:07:58.192Z,5.60
2018-04-18T05:10:25.694Z,5.60
2018-04-18T05:12:53.174Z,5.60
2018-04-18T05:15:20.645Z,5.60
2018-04-18T05:17:48.117Z,5.60
2018-04-18T05:20:15.588Z,5.60
2018-04-18T05:22:43.858Z,5.70
2018-04-18T05:25:12.094Z,5.70
2018-04-18T05:27:39.598Z,5.70
2018-04-18T05:30:07.836Z,5.80
2018-04-18T05:32:35.342Z,5.80
2018-04-18T05:35:02.840Z,5.90
2018-04-18T05:37:30.297Z,5.90
2018-04-18T05:39:57.793Z,6.00
2018-04-18T05:42:25.283Z,6.00
2018-04-18T05:44:52.789Z,6.20
2018-04-18T05:47:20.295Z,6.30
2018-04-18T05:49:48.560Z,6.40
2018-04-18T05:52:16.793Z,6.50
2018-04-18T05:54:44.327Z,6.50
2018-04-18T05:57:11.814Z,6.70
2018-04-18T05:59:39.336Z,6.80
2018-04-18T06:02:06.805Z,6.90
2018-04-18T06:04:34.305Z,7.00
2018-04-18T06:07:01.784Z,7.20
2018-04-18T06:09:30.041Z,7.40
2018-04-18T06:11:57.507Z,7.40
2018-04-18T06:14:25.020Z,7.50
2018-04-18T06:16:52.485Z,7.70
2018-04-18T06:19:20.025Z,7.90
2018-04-18T06:21:47.487Z,8.00
2018-04-18T06:24:14.992Z,8.10
2018-04-18T06:26:42.497Z,8.30
2018-04-18T06:29:09.981Z,8.40
2018-04-18T06:31:37.488Z,8.60
2018-04-18T06:34:05.722Z,8.90
2018-04-18T06:36:33.236Z,8.80
2018-04-18T06:39:00.747Z,9.00
2018-04-18T06:41:28.243Z,9.20
2018-04-18T06:43:56.474Z,9.50
2018-04-18T06:46:23.961Z,9.50
2018-04-18T06:48:52.223Z,10.00
2018-04-18T06:51:19.771Z,9.90
2018-04-18T06:53:47.238Z,10.20
2018-04-18T06:56:14.745Z,10.40
2018-04-18T06:58:42.223Z,10.70
2018-04-18T07:01:09.727Z,10.90
2018-04-18T07:03:37.976Z,11.40
2018-04-18T07:06:05.483Z,11.40
2018-04-18T07:08:32.953Z,11.70
2018-04-18T07:11:00.462Z,12.00
2018-04-18T07:13:27.932Z,12.30
2018-04-18T07:15:55.451Z,12.50
2018-04-18T07:18:22.924Z,12.90
2018-04-18T07:20:50.410Z,13.30
2018-04-18T07:23:18.677Z,14.00
2018-04-18T07:25:46.182Z,14.00
2018-04-18T07:28:13.744Z,14.40
2018-04-18T07:30:41.252Z,14.80
2018-04-18T07:33:08.767Z,15.10
2018-04-18T07:35:36.230Z,15.50
2018-04-18T07:38:03.745Z,16.10
2018-04-18T07:40:31.986Z,17.60
2018-04-18T07:42:59.511Z,17.60
2018-04-18T07:45:27.759Z,18.90
2018-04-18T07:47:55.271Z,18.90
2018-04-18T07:50:22.762Z,19.50
2018-04-18T07:52:51.043Z,20.40
2018-04-18T07:55:19.990Z,21.00
2018-04-18T07:57:47.489Z,20.90
2018-04-18T08:00:15.751Z,22.30
2018-04-18T08:02:43.316Z,22.20
2018-04-18T08:05:10.800Z,23.00
2018-04-18T08:07:38.310Z,24.20
2018-04-18T08:10:05.833Z,25.10
2018-04-18T08:12:33.328Z,25.50
2018-04-18T08:15:00.845Z,25.30
2018-04-18T08:17:28.350Z,25.70
2018-04-18T08:19:55.872Z,26.10
2018-04-18T08:22:23.347Z,26.20
2018-04-18T08:24:50.856Z,26.40
2018-04-18T08:27:18.348Z,27.20
2018-04-18T08:29:45.846Z,28.10
2018-04-18T08:32:13.341Z,28.10
2018-04-18T08:34:40.851Z,28.00
2018-04-18T08:37:08.483Z,28.30
2018-04-18T08:39:35.981Z,28.50
2018-04-18T08:42:03.441Z,28.70
2018-04-18T08:44:30.969Z,29.40
2018-04-18T08:46:58.488Z,29.40
2018-04-18T08:49:26.011Z,29.50
2018-04-18T08:51:53.490Z,30.00
2018-04-18T08:54:21.715Z,31.20
2018-04-18T08:56:49.246Z,31.10
2018-04-18T08:59:16.738Z,31.40
2018-04-18T09:01:44.242Z,31.90
2018-04-18T09:04:12.474Z,32.10
2018-04-18T09:06:40.136Z,32.10
2018-04-18T09:09:07.598Z,32.20
2018-04-18T09:11:35.115Z,32.10
2018-04-18T09:14:02.610Z,32.50
2018-04-18T09:16:30.106Z,33.10
2018-04-18T09:18:58.366Z,33.60
2018-04-18T09:21:25.909Z,33.60
2018-04-18T09:23:53.385Z,33.70
2018-04-18T09:26:20.931Z,33.80
2018-04-18T09:28:48.483Z,33.80
2018-04-18T09:31:15.974Z,33.50
2018-04-18T09:33:44.225Z,33.60
2018-04-18T09:36:11.701Z,33.60
2018-04-18T09:38:39.201Z,34.00
2018-04-18T09:41:06.692Z,34.30
2018-04-18T09:43:34.220Z,34.60
2018-04-18T09:46:01.707Z,34.10
2018-04-18T09:48:29.207Z,34.50
2018-04-18T09:50:57.463Z,35.10
2018-04-18T09:53:24.975Z,35.10
2018-04-18T09:55:52.460Z,34.80
2018-04-18T09:58:20.047Z,35.50
2018-04-18T10:00:53.215Z,36.00
2018-04-18T10:03:20.725Z,36.00
2018-04-18T10:05:48.216Z,36.00
2018-04-18T10:08:15.763Z,36.10
2018-04-18T10:10:43.248Z,36.60
2018-04-18T10:13:10.718Z,36.40
2018-04-18T10:15:38.262Z,36.40
2018-04-18T10:18:05.747Z,36.00
2018-04-18T10:20:34.037Z,35.40
2018-04-18T10:23:02.303Z,35.60
2018-04-18T10:25:29.808Z,35.50
2018-04-18T10:27:57.292Z,36.00
2018-04-18T10:30:24.790Z,35.90
2018-04-18T10:32:52.259Z,36.30
2018-04-18T10:35:19.784Z,36.50
2018-04-18T10:37:47.299Z,36.70
2018-04-18T10:40:14.833Z,36.90
2018-04-18T10:42:42.301Z,37.30
2018-04-18T10:45:09.808Z,37.80
2018-04-18T10:47:37.280Z,38.00
2018-04-18T10:50:05.563Z,38.70
2018-04-18T10:52:33.797Z,38.80
2018-04-18T10:55:01.303Z,38.80
2018-04-18T10:57:29.532Z,39.70
2018-04-18T10:59:57.047Z,39.60
2018-04-18T11:02:24.537Z,39.20
2018-04-18T11:04:52.045Z,38.90
2018-04-18T11:07:20.335Z,38.50
2018-04-18T11:09:48.624Z,38.80
2018-04-18T11:12:16.098Z,38.80
2018-04-18T11:14:43.602Z,38.70
2018-04-18T11:17:11.075Z,39.20
2018-04-18T11:19:39.357Z,40.30
2018-04-18T11:22:07.645Z,40.00
2018-04-18T11:24:35.164Z,40.00
2018-04-18T11:27:02.653Z,39.70
2018-04-18T11:29:30.143Z,40.10
2018-04-18T11:31:58.406Z,40.80
2018-04-18T11:34:26.241Z,40.70
2018-04-18T11:36:54.510Z,41.40
2018-04-18T11:39:22.747Z,41.10
2018-04-18T11:41:50.245Z,41.00
2018-04-18T11:44:17.742Z,41.70
2018-04-18T11:46:45.238Z,42.70
2018-04-18T11:49:12.721Z,42.80
2018-04-18T11:51:40.249Z,42.00
2018-04-18T11:54:07.734Z,42.20
2018-04-18T11:56:35.264Z,42.80
2018-04-18T11:59:02.792Z,43.00
2018-04-18T12:01:30.302Z,42.80
2018-04-18T12:03:57.800Z,42.20
2018-04-18T12:06:25.297Z,42.30
2018-04-18T12:08:52.761Z,41.70
2018-04-18T12:11:20.283Z,40.90
2018-04-18T12:13:47.773Z,41.40
2018-04-18T12:16:15.273Z,41.00
2018-04-18T12:18:42.747Z,40.90
2018-04-18T12:21:10.222Z,40.90
2018-04-18T12:23:37.760Z,41.10
2018-04-18T12:26:05.230Z,41.40
2018-04-18T12:28:32.738Z,41.30
2018-04-18T12:31:00.223Z,41.20
2018-04-18T12:33:27.713Z,41.50
2018-04-18T12:35:55.203Z,40.90
2018-04-18T12:38:22.707Z,41.40
2018-04-18T12:40:50.171Z,40.90
2018-04-18T12:43:17.690Z,40.50
2018-04-18T12:45:45.183Z,40.50
2018-04-18T12:48:12.712Z,40.90
2018-04-18T12:50:40.171Z,40.70
2018-04-18T12:53:08.420Z,40.10
2018-04-18T12:55:35.933Z,40.00
2018-04-18T12:58:03.501Z,40.00
2018-04-18T13:00:31.005Z,40.30
2018-04-18T13:02:58.490Z,40.50
2018-04-18T13:05:26.759Z,40.90
2018-04-18T13:07:55.028Z,40.40
2018-04-18T13:10:23.312Z,40.50
2018-04-18T13:12:51.550Z,40.90
2018-04-18T13:15:19.077Z,40.80
2018-04-18T13:17:46.561Z,40.50
2018-04-18T13:20:14.067Z,40.90
2018-04-18T13:22:41.558Z,42.00
2018-04-18T13:25:09.305Z,41.90
2018-04-18T13:27:36.820Z,41.60
2018-04-18T13:30:04.294Z,42.10
2018-04-18T13:32:32.552Z,41.50
2018-04-18T13:35:00.035Z,41.50
2018-04-18T13:37:28.302Z,41.40
2018-04-18T13:39:56.551Z,41.40
2018-04-18T13:42:24.060Z,41.50
2018-04-18T13:44:51.538Z,41.60
2018-04-18T13:47:19.110Z,41.90
2018-04-18T13:49:46.577Z,41.50
2018-04-18T13:52:14.078Z,41.50
2018-04-18T13:54:41.630Z,40.70
2018-04-18T13:57:09.098Z,40.10
2018-04-18T13:59:38.133Z,39.90
2018-04-18T14:02:05.690Z,39.90
2018-04-18T14:04:33.142Z,38.70
2018-04-18T14:07:00.651Z,38.10
2018-04-18T14:09:28.132Z,37.40
2018-04-18T14:11:55.640Z,36.40
2018-04-18T14:14:23.121Z,35.70
2018-04-18T14:16:50.837Z,34.80
2018-04-18T14:19:18.329Z,34.10
2018-04-18T14:21:45.860Z,33.50
2018-04-18T14:24:13.325Z,33.10
2018-04-18T14:26:40.856Z,32.50
2018-04-18T14:29:08.314Z,32.30
2018-04-18T14:31:35.832Z,31.90
2018-04-18T14:34:04.081Z,31.20
2018-04-18T14:36:31.603Z,31.20
2018-04-18T14:38:59.081Z,30.80
2018-04-18T14:41:26.594Z,30.70
2018-04-18T14:43:54.835Z,30.40
2018-04-18T14:46:22.298Z,30.40
2018-04-18T14:48:49.790Z,30.20
2018-04-18T14:51:18.037Z,29.70
2018-04-18T14:53:45.535Z,29.70
2018-04-18T14:56:13.015Z,29.60
2018-04-18T14:58:40.525Z,29.30
2018-04-18T15:01:08.770Z,29.20
2018-04-18T15:03:36.276Z,29.20
2018-04-18T15:06:03.766Z,29.00
2018-04-18T15:08:31.292Z,28.80
2018-04-18T15:10:59.542Z,28.60
2018-04-18T15:13:27.070Z,28.50
2018-04-18T15:15:54.531Z,28.40
2018-04-18T15:18:22.039Z,28.30
2018-04-18T15:20:50.297Z,28.20
2018-04-18T15:23:17.762Z,28.10
2018-04-18T15:25:46.037Z,28.00
2018-04-18T15:28:14.289Z,28.00
2018-04-18T15:30:41.799Z,28.00
2018-04-18T15:33:09.281Z,27.90
2018-04-18T15:35:36.857Z,27.90
2018-04-18T15:38:04.351Z,27.90
2018-04-18T15:40:32.625Z,27.60
2018-04-18T15:43:00.889Z,27.50
2018-04-18T15:45:28.411Z,27.50
2018-04-18T15:47:55.886Z,27.50
2018-04-18T15:50:23.402Z,27.50
2018-04-18T15:52:50.879Z,27.50
2018-04-18T15:55:18.418Z,27.50
2018-04-18T15:57:45.928Z,27.40
2018-04-18T16:00:13.433Z,27.30
2018-04-18T16:02:40.906Z,27.20
2018-04-18T16:05:08.411Z,27.10
2018-04-18T16:07:36.777Z,26.90
2018-04-18T16:10:04.246Z,26.90
2018-04-18T16:12:31.727Z,26.80
2018-04-18T16:14:59.985Z,26.70
2018-04-18T16:17:27.485Z,26.60
2018-04-18T16:19:54.949Z,26.60
2018-04-18T16:22:22.463Z,26.50
2018-04-18T16:24:49.988Z,26.40
2018-04-18T16:27:17.507Z,26.30
2018-04-18T16:29:44.978Z,26.30
2018-04-18T16:32:12.498Z,26.30
2018-04-18T16:34:39.976Z,26.20
2018-04-18T16:37:07.495Z,26.20
2018-04-18T16:39:34.990Z,26.20
2018-04-18T16:42:02.520Z,26.10
2018-04-18T16:44:29.983Z,26.00
2018-04-18T16:46:57.477Z,25.90
2018-04-18T16:49:24.973Z,25.80
2018-04-18T16:51:52.557Z,25.70
2018-04-18T16:54:20.018Z,25.60
2018-04-18T16:56:47.502Z,25.50
2018-04-18T16:59:15.796Z,25.30
2018-04-18T17:01:43.267Z,25.30
2018-04-18T17:04:10.761Z,25.30
2018-04-18T17:06:38.274Z,25.20
2018-04-18T17:09:06.498Z,25.00
2018-04-18T17:11:34.737Z,24.90
2018-04-18T17:14:02.248Z,24.90
2018-04-18T17:16:30.506Z,24.80
2018-04-18T17:18:58.020Z,24.70
2018-04-18T17:21:25.505Z,24.70
2018-04-18T17:23:53.011Z,24.60
2018-04-18T17:26:20.483Z,24.50
2018-04-18T17:28:47.997Z,24.40
2018-04-18T17:31:15.511Z,24.30
2018-04-18T17:33:43.021Z,24.20
2018-04-18T17:36:10.492Z,24.10
2018-04-18T17:38:38.777Z,24.00
2018-04-18T17:41:06.258Z,23.90
2018-04-18T17:43:33.732Z,23.80
2018-04-18T17:46:01.244Z,23.70
2018-04-18T17:48:30.095Z,23.60
2018-04-18T17:50:57.618Z,23.50
2018-04-18T17:53:25.098Z,23.50
2018-04-18T17:55:52.617Z,23.40
2018-04-18T17:58:20.073Z,23.20
2018-04-18T18:00:47.590Z,23.20
2018-04-18T18:03:15.060Z,23.00
2018-04-18T18:05:42.585Z,22.90
2018-04-18T18:08:10.065Z,22.80
2018-04-18T18:10:37.582Z,22.60
2018-04-18T18:13:05.072Z,22.50
2018-04-18T18:15:32.591Z,22.40
2018-04-18T18:18:00.105Z,22.30
2018-04-18T18:20:27.635Z,22.20
2018-04-18T18:22:55.162Z,22.00
2018-04-18T18:25:23.496Z,22.00
2018-04-18T18:27:51.772Z,21.70
2018-04-18T18:30:19.348Z,21.70
2018-04-18T18:32:47.634Z,21.50
2018-04-18T18:35:15.934Z,21.30
2018-04-18T18:37:43.414Z,21.30
2018-04-18T18:40:10.931Z,21.20
2018-04-18T18:42:39.234Z,20.90
2018-04-18T18:45:06.814Z,20.80
2018-04-18T18:47:34.304Z,20.70
2018-04-18T18:50:01.880Z,20.60
2018-04-18T18:52:30.125Z,20.30
2018-04-18T18:54:57.603Z,20.30
2018-04-18T18:57:25.883Z,20.10
2018-04-18T18:59:54.182Z,20.00
2018-04-18T19:02:21.692Z,19.90
2018-04-18T19:04:49.187Z,19.80
2018-04-18T19:07:17.487Z,19.60
2018-04-18T19:09:44.984Z,19.60
2018-04-18T19:12:12.518Z,19.50
2018-04-18T19:14:40.098Z,19.30
2018-04-18T19:17:07.595Z,19.20
2018-04-18T19:19:35.845Z,18.90
2018-04-18T19:22:03.363Z,18.90
2018-04-18T19:24:30.854Z,18.80
2018-04-18T19:26:58.346Z,18.70
2018-04-18T19:29:26.648Z,18.40
2018-04-18T19:31:54.240Z,18.40
2018-04-18T19:34:21.749Z,18.30
2018-04-18T19:36:49.295Z,18.20
2018-04-18T19:39:17.549Z,17.80
2018-04-18T19:41:45.073Z,17.80
2018-04-18T19:44:13.036Z,17.70
2018-04-18T19:46:40.559Z,17.60
2018-04-18T19:49:08.084Z,17.40
2018-04-18T19:51:35.578Z,17.30
2018-04-18T19:54:04.428Z,17.00
2018-04-18T19:56:31.928Z,16.90
2018-04-18T19:59:00.313Z,16.70
2018-04-18T20:01:27.798Z,16.70
2018-04-18T20:03:55.347Z,16.60
2018-04-18T20:06:23.684Z,16.50
2018-04-18T20:08:51.206Z,16.40
2018-04-18T20:11:18.708Z,16.30
2018-04-18T20:13:47.121Z,16.10
2018-04-18T20:16:14.608Z,16.00
2018-04-18T20:18:42.138Z,15.90
2018-04-18T20:21:09.636Z,15.90
2018-04-18T20:23:37.146Z,15.80
2018-04-18T20:26:04.642Z,15.60
2018-04-18T20:28:32.142Z,15.50
2018-04-18T20:31:00.462Z,15.30
2018-04-18T20:33:27.972Z,15.20
2018-04-18T20:35:56.246Z,15.10
2018-04-18T20:38:24.498Z,15.10
2018-04-18T20:40:52.033Z,15.10
2018-04-18T20:43:19.495Z,15.00
2018-04-18T20:45:47.002Z,15.00
2018-04-18T20:48:15.246Z,14.90
2018-04-18T20:50:42.767Z,14.80
2018-04-18T20:53:10.249Z,14.80
2018-04-18T20:55:37.759Z,14.70
2018-04-18T21:40:50.916Z,13.30
2018-04-18T21:43:18.435Z,13.20
2018-04-18T21:45:45.921Z,13.10
2018-04-18T21:48:13.466Z,13.10
2018-04-18T21:50:40.952Z,13.10
2018-04-18T21:53:08.496Z,13.00
2018-04-18T21:55:35.996Z,13.00
2018-04-18T21:58:03.526Z,12.90
2018-04-18T22:00:30.991Z,12.80
2018-04-18T22:02:58.502Z,12.80
2018-04-18T22:05:25.984Z,12.70
2018-04-18T22:07:53.563Z,12.70
2018-04-18T22:10:21.037Z,12.70
2018-04-18T22:12:48.549Z,12.60
2018-04-18T22:15:16.043Z,12.50
2018-04-18T22:17:43.608Z,12.50
2018-04-18T22:20:11.891Z,12.40
2018-04-18T22:22:39.368Z,12.30
2018-04-18T22:25:07.641Z,12.20
2018-04-18T22:27:35.878Z,12.20
2018-04-18T22:30:03.444Z,12.20
2018-04-18T22:32:30.930Z,12.10
2018-04-18T22:34:59.199Z,12.00
2018-04-18T22:37:26.687Z,12.00
2018-04-18T22:39:54.680Z,12.00
2018-04-18T22:42:22.134Z,12.00
2018-04-18T22:44:49.653Z,11.90
2018-04-18T22:47:17.899Z,11.70
2018-04-18T22:49:45.441Z,11.70
2018-04-18T22:52:12.924Z,11.70
2018-04-18T22:54:40.442Z,11.60
2018-04-18T22:57:07.916Z,11.60
2018-04-18T22:59:35.452Z,11.50
2018-04-18T23:02:02.934Z,11.50
2018-04-18T23:04:31.214Z,11.40
2018-04-18T23:06:58.690Z,11.40
2018-04-18T23:09:26.212Z,11.40
2018-04-18T23:11:53.766Z,11.30
2018-04-18T23:14:21.301Z,11.30
2018-04-18T23:16:49.555Z,11.20
2018-04-18T23:19:17.069Z,11.10
2018-04-18T23:21:44.576Z,11.10
2018-04-18T23:24:12.828Z,11.00
2018-04-18T23:26:41.102Z,10.90
2018-04-18T23:29:08.601Z,10.90
2018-04-18T23:31:37.024Z,10.80
2018-04-18T23:34:04.501Z,10.80
2018-04-18T23:36:32.016Z,10.80
2018-04-18T23:38:59.517Z,10.70
2018-04-18T23:41:27.021Z,10.60
2018-04-18T23:43:54.506Z,10.60
2018-04-18T23:46:22.697Z,10.50
2018-04-18T23:48:50.209Z,10.50
2018-04-18T23:51:18.436Z,10.50
2018-04-18T23:53:45.961Z,10.50
2018-04-18T23:56:13.451Z,10.40
2018-04-18T23:58:41.005Z,10.30
